EST,Max TemperatureF,Mean TemperatureF,Min TemperatureF,Max Dew PointF,MeanDew PointF,Min DewpointF,Max Humidity, Mean Humidity, Min Humidity, Max Sea Level PressureIn, Mean Sea Level PressureIn, Min Sea Level PressureIn, Max VisibilityMiles, Mean VisibilityMiles, Min VisibilityMiles, Max Wind SpeedMPH, Mean Wind SpeedMPH, Max Gust SpeedMPH,PrecipitationIn, CloudCover, Events, WindDirDegrees
2011-11-1,62,47,31,36,32,28,89,61,33,30.38,30.33,30.27,10,10,10,10,3,,0.00,0,,69
2011-11-2,64,48,32,39,35,30,96,68,39,30.45,30.37,30.28,10,10,10,10,2,29,0.00,0,,125
2011-11-3,65,50,35,48,39,33,93,64,34,30.27,30.09,29.93,10,9,4,17,3,21,0.26,1,Rain,174
2011-11-4,58,52,46,49,43,26,100,73,45,30.22,29.98,29.84,10,8,3,21,7,25,0.20,5,Rain,29
2011-11-5,53,44,34,27,24,23,70,51,32,30.50,30.38,30.23,10,10,10,14,5,17,0.00,0,,62
2011-11-6,58,43,28,40,33,26,92,72,51,30.55,30.48,30.42,10,10,10,12,2,,0.00,0,,119
2011-11-7,69,51,33,42,38,32,96,66,35,30.43,30.38,30.32,10,10,1,5,1,18,0.00,0,,27
2011-11-8,68,52,35,42,38,34,92,64,35,30.35,30.28,30.21,10,10,10,10,2,13,0.00,0,,107
2011-11-9,68,52,35,47,42,33,92,69,45,30.22,30.11,29.98,10,10,10,14,3,17,0.00,1,,126
2011-11-10,57,49,40,46,36,24,77,61,44,29.97,29.93,29.89,10,10,10,25,11,36,T,4,Rain,307
2011-11-11,49,43,36,22,20,18,52,42,31,30.16,30.06,29.96,10,10,10,23,11,37,0.00,2,,287
2011-11-12,65,49,32,30,25,20,59,41,23,30.25,30.19,30.15,10,10,10,20,7,25,0.00,0,,241
2011-11-13,62,48,34,41,31,26,82,55,27,30.19,30.12,30.06,10,10,10,16,3,21,0.00,1,,153
2011-11-14,78,62,46,51,47,40,86,61,35,30.07,29.99,29.90,10,10,10,24,5,32,0.00,1,,220
2011-11-15,68,62,55,59,54,51,90,79,67,30.01,29.95,29.91,10,10,7,15,5,20,T,7,Rain,293
2011-11-16,65,59,53,61,54,44,100,89,77,29.95,29.84,29.72,10,6,0,20,5,25,0.69,8,Rain,352
2011-11-17,53,44,35,47,31,12,93,64,35,30.31,30.07,29.90,10,9,4,25,10,35,0.40,5,Rain,308
2011-11-18,46,37,28,20,14,10,63,45,27,30.54,30.45,30.32,10,10,10,13,4,16,0.00,0,,112
2011-11-19,56,40,24,33,25,19,81,57,32,30.49,30.40,30.32,10,10,10,13,2,15,0.00,0,,140
2011-11-20,72,54,36,55,45,33,85,67,49,30.32,30.26,30.17,10,10,10,13,2,17,0.00,2,,197
2011-11-21,69,64,58,57,55,54,84,74,63,30.25,30.20,30.16,10,10,10,12,5,15,T,6,Rain,259
2011-11-22,60,59,57,58,56,54,100,90,80,30.21,30.10,29.83,10,3,0,15,5,18,0.18,8,Fog-Rain,130
2011-11-23,62,53,43,59,43,30,97,74,50,30.20,29.91,29.71,10,9,1,32,14,44,0.50,4,Rain,291
2011-11-24,63,52,40,33,30,26,67,47,27,30.36,30.31,30.21,10,10,10,18,7,21,0.00,0,,276
2011-11-25,69,53,36,35,29,19,76,46,15,30.38,30.31,30.23,10,10,10,13,5,17,0.00,0,,283
2011-11-26,65,49,33,34,30,26,76,51,25,30.35,30.27,30.21,10,10,10,10,2,14,0.00,0,,347
2011-11-27,70,55,40,52,45,36,89,67,44,30.20,30.12,30.04,10,10,10,22,6,31,0.00,4,,175
2011-11-28,65,61,56,58,55,52,93,80,67,30.08,29.98,29.84,10,7,2,24,12,31,0.67,8,Rain,122
2011-11-29,61,50,38,58,41,31,93,73,52,29.80,29.75,29.67,10,9,3,26,11,40,1.40,6,Rain,202
2011-11-30,47,41,34,31,27,23,76,61,45,30.19,29.96,29.78,10,10,10,26,12,35,T,4,,288